Hauptseite
METAR-TAF:

METAR-TAF

Flughäfen :

Flughafen Frankfurt-Hahn

Hahn, Deutschland

Breite: 49-57N, Länge: 007-16E, Höhe: 491 m

Beobachtung

Neuester Wetterbericht von vor 1 Stunde und 5 Minuten, um 01:20 UTC
Wind 3 kt aus West
Temperatur 12°C
Luftfeuchtigkeit 82%
Luftdruck 1029 hPa
Sichtweite 10 km oder mehr
keine Wolken unter 1500 m und keine Kumulonimbus oder Gewitterwolken

METAR: EDFH 130120Z 26003KT CAVOK 12/09 Q1029

Zeit: 04:25 (02:25 UTC)

Prognose

Neuester Wetterbericht von vor 3 Stunden und 25 Minuten, um 23:00 UTC
Gültige Prognose vom 13 um 00 UTC bis 13 um 24 UTC
Wind 4 kt aus Südwest
Sichtweite 10 km oder mehr
keine Wolken unter 1500 m und keine Kumulonimbus oder Gewitterwolken
Übergehend zu
vom 13 um 05 UTC bis 13 um 08 UTC
Wind 9 kt aus West/Südwest

TAF: EDFH 122300Z 1300/1324 22004KT CAVOK BECMG 1305/1308 25009KT

Wetterbeobachtungen und Prognosen von mehr als 4000 Flughäfen (METAR und TAF Bericht).

Die verfügbaren Stationen werden durch gelbe und rote Markierungen auf der Karte dargestellt.

Führen Sie die Maus auf sie, um den Namen der Station zu sehen.

Darauf klicken, um die Beobachtung von Wetterbeobachtungen und Prognosen zu sehen.

Um die Karte zu ändern : klicken Sie auf den grünen Tasten mit einem schwarzen Kreuz Zum Vergrößern, auf den grünen Button mit einem Gedankenstrich zu verkleinern, oder auf die grünen Pfeile für benachbarte Karten.


METAR-TAF: